Shawnee, OK (74801)

6:58 PM CST on February 05, 2016 (GMT -0600)
Shawnee Municipal | | Change Station
CLOSE
Current Station
Airport
Location: Shawnee,
Elevation: 1073 ft
Nearby Weather Stations

Elev 1073 ft 35.36 °N, 96.94 °W | Updated 23 minutes ago

Overcast
Overcast
50 °F
Feels Like 50 °F
N
5
Wind Variable Wind from SSE

Today
High -- | Low -- °F
--% Chance of Precip.
Yesterday
High -- | Low -- °F
Precip. -- in
Pressure 30.28 in
Visibility 10.0 miles
Clouds Overcast 8000 ft
Dew Point 30 °F
Humidity 47%
Rainfall 0.00 in
Snow Depth Not available.
7:24 AM 5:59 PM
Waning Crescent, 8% visible
METAR KSNL 060035Z AUTO 15004KT 10SM OVC080 10/M01 A3028 RMK AO2
Pressure 30.28 in
Visibility 10.0 miles
Clouds Overcast 8000 ft
Dew Point 30 °F
Humidity 47%
Rainfall 0.00 in
Snow Depth Not available.
7:24 AM 5:59 PM
Waning Crescent, 8% visible
METAR KSNL 060035Z AUTO 15004KT 10SM OVC080 10/M01 A3028 RMK AO2

10-Day Weather Forecast

Almanac

Astronomy

Feb. 05, 2016 Rise Set
Actual Time
Civil Twilight
Nautical Twilight
Astronomical Twilight
Moon
Length of Visible Light
Length of Day
Tomorrow will be .
, % of the Moon is Illuminated

Today's Extremes

State Highs State Lows

Community

WunderPhotos

Upload Photos

1,890,900 photos uploaded!

WunderBlog® & News

Nearby

Air Quality

  Air Quality AQ Index Pollutant
Not available.

Snow Depth

Station Depth Elevation

Earthquake Activity

City Distance Mag. Time & Date
Minimum magnitude displayed is 2.5.

Coastal Water Temperatures

Place Temperature

Stations

Nearby Weather Stations

Station Location Temp. Windchill Dew Point Humidity Wind Precip. Elev Updated Type
                   

Watches & Warnings

There are currently no watches in effect.